Time;durP1;ratioP1;P1;durP2;ratioP2;P2;SDS_P1;SDS_P2;PMS_P1;PMS_P2;Temp;Humidity;BMP_temperature;BMP_pressure;BME280_temperature;BME280_humidity;BME280_pressure;Samples;Min_cycle;Max_cycle;Signal;HPM_P1;HPM_P2
2023/08/20 00:00:53;;;;;;;6.45;3.13;;;15.00;99.90;;;;;;4960732;28;20081;-78
2023/08/20 00:03:19;;;;;;;6.88;3.60;;;15.00;99.90;;;;;;4962083;28;20050;-79
2023/08/20 00:05:45;;;;;;;5.40;3.42;;;15.00;99.90;;;;;;4962506;28;20512;-79
2023/08/20 00:08:10;;;;;;;8.80;4.10;;;15.00;99.90;;;;;;4960125;28;20065;-79
2023/08/20 00:10:36;;;;;;;9.27;4.07;;;14.90;99.90;;;;;;4961290;28;20481;-79
2023/08/20 00:13:05;;;;;;;11.02;4.50;;;14.90;99.90;;;;;;4961708;28;20076;-79
2023/08/20 00:15:30;;;;;;;12.57;5.13;;;14.90;99.90;;;;;;4977765;28;20158;-79
2023/08/20 00:17:56;;;;;;;10.15;4.70;;;14.90;99.90;;;;;;4960028;28;20548;-78
2023/08/20 00:20:22;;;;;;;6.45;4.55;;;14.80;99.90;;;;;;4976546;28;20054;-78
2023/08/20 00:22:48;;;;;;;7.20;4.47;;;14.80;99.90;;;;;;4958218;28;20039;-79
2023/08/20 00:25:15;;;;;;;8.90;4.28;;;14.80;99.90;;;;;;4958531;28;20042;-78
2023/08/20 00:27:42;;;;;;;7.28;4.38;;;14.80;99.90;;;;;;4980134;28;20421;-79
2023/08/20 00:30:09;;;;;;;7.80;4.90;;;14.80;99.90;;;;;;4974243;28;20082;-79
2023/08/20 00:32:36;;;;;;;7.55;4.65;;;14.80;99.90;;;;;;4960783;28;20053;-79
2023/08/20 00:35:05;;;;;;;6.80;4.05;;;14.80;99.90;;;;;;4945896;28;20042;-78
2023/08/20 00:37:31;;;;;;;6.93;4.43;;;14.80;99.90;;;;;;4963340;28;20057;-79
2023/08/20 00:39:57;;;;;;;6.07;3.88;;;14.80;99.90;;;;;;4973561;28;20049;-78
2023/08/20 00:42:25;;;;;;;6.18;3.95;;;14.70;99.90;;;;;;4963274;28;20038;-78
2023/08/20 00:44:51;;;;;;;8.27;3.75;;;14.70;99.90;;;;;;4979024;28;20050;-78
2023/08/20 00:47:18;;;;;;;9.60;4.72;;;14.60;99.90;;;;;;4958402;28;20514;-79
2023/08/20 00:49:44;;;;;;;7.00;3.90;;;14.60;99.90;;;;;;4974969;28;20502;-78
2023/08/20 00:52:14;;;;;;;6.15;3.67;;;14.60;99.90;;;;;;4961831;28;20043;-78
2023/08/20 00:54:40;;;;;;;6.53;3.90;;;14.60;99.90;;;;;;4961023;28;20042;-79
2023/08/20 00:57:08;;;;;;;8.13;3.65;;;14.50;99.90;;;;;;4973510;28;20634;-78
2023/08/20 00:59:34;;;;;;;4.68;3.40;;;14.50;99.90;;;;;;4959796;28;20125;-79
2023/08/20 01:02:01;;;;;;;7.18;4.30;;;14.40;99.90;;;;;;4944815;28;20042;-78
2023/08/20 01:04:29;;;;;;;6.63;4.53;;;14.40;99.90;;;;;;4960038;28;20996;-78
2023/08/20 01:07:14;;;;;;;7.88;4.40;;;14.50;99.90;;;;;;4961387;28;20051;-78
2023/08/20 01:09:55;;;;;;;;;;;14.50;99.90;;;;;;4961805;28;20088;-78
2023/08/20 01:12:22;;;;;;;5.28;3.80;;;14.50;99.90;;;;;;4944723;28;19925;-78
2023/08/20 01:14:48;;;;;;;6.97;3.92;;;14.50;99.90;;;;;;4976573;28;20057;-79
2023/08/20 01:17:13;;;;;;;5.65;4.00;;;14.50;99.90;;;;;;4960141;28;20474;-79
2023/08/20 01:19:39;;;;;;;8.40;4.13;;;14.50;99.90;;;;;;4959602;28;20420;-78
2023/08/20 01:22:44;;;;;;;6.97;4.07;;;14.50;99.90;;;;;;4956957;28;20047;-78
2023/08/20 01:25:29;;;;;;;6.47;3.50;;;14.50;99.90;;;;;;4944883;28;20133;-78
2023/08/20 01:28:19;;;;;;;6.43;4.40;;;14.40;99.90;;;;;;4941217;28;20054;-77
2023/08/20 01:30:47;;;;;;;6.88;3.88;;;14.40;99.90;;;;;;4963080;28;20034;-78
2023/08/20 01:33:14;;;;;;;7.13;4.10;;;14.30;99.90;;;;;;4960653;28;20044;-78
2023/08/20 01:35:40;;;;;;;5.35;3.88;;;14.40;99.90;;;;;;4955388;28;20100;-78
2023/08/20 01:38:06;;;;;;;5.80;3.60;;;14.30;99.90;;;;;;4955568;28;20464;-78
2023/08/20 01:40:32;;;;;;;6.03;3.80;;;14.20;99.90;;;;;;4954720;28;20065;-78
2023/08/20 01:42:57;;;;;;;6.03;3.85;;;14.20;99.90;;;;;;4960299;28;20133;-78
2023/08/20 01:45:23;;;;;;;6.47;4.07;;;14.30;99.90;;;;;;4942972;28;20085;-78
2023/08/20 01:47:49;;;;;;;7.50;4.47;;;14.30;99.90;;;;;;4962149;28;20436;-78
2023/08/20 01:50:14;;;;;;;7.93;4.72;;;14.30;99.90;;;;;;4942636;28;20189;-78
2023/08/20 01:52:40;;;;;;;7.85;4.57;;;14.30;99.90;;;;;;4960286;28;20490;-78
2023/08/20 01:55:06;;;;;;;10.43;5.13;;;14.40;99.90;;;;;;4958381;28;20053;-78
2023/08/20 01:57:32;;;;;;;11.60;5.78;;;14.40;99.90;;;;;;4943821;28;20133;-78
2023/08/20 01:59:58;;;;;;;8.73;4.72;;;14.30;99.90;;;;;;4958202;28;20132;-78
2023/08/20 02:02:24;;;;;;;8.60;4.47;;;14.40;99.90;;;;;;4960719;28;20094;-77
2023/08/20 02:04:49;;;;;;;9.40;5.30;;;14.40;99.90;;;;;;4956497;28;20708;-78
2023/08/20 02:07:18;;;;;;;10.43;5.75;;;14.40;99.90;;;;;;4958639;28;20339;-78
2023/08/20 02:09:44;;;;;;;10.45;6.00;;;14.40;99.90;;;;;;4969092;28;20514;-78
2023/08/20 02:12:09;;;;;;;15.45;6.32;;;14.40;99.90;;;;;;4956703;28;20118;-78
2023/08/20 02:14:35;;;;;;;11.60;6.47;;;14.40;99.90;;;;;;4969500;28;20074;-78
2023/08/20 02:17:01;;;;;;;10.00;6.13;;;14.40;99.90;;;;;;4956568;28;20097;-78
2023/08/20 02:19:27;;;;;;;13.00;6.80;;;14.40;99.90;;;;;;4937831;28;20120;-78
2023/08/20 02:21:53;;;;;;;8.50;6.10;;;14.40;99.90;;;;;;4952895;28;20051;-78
2023/08/20 02:24:19;;;;;;;16.90;7.45;;;14.40;99.90;;;;;;4953917;28;20051;-78
2023/08/20 02:26:45;;;;;;;13.55;7.40;;;14.50;99.90;;;;;;4948231;28;20652;-78
2023/08/20 02:29:10;;;;;;;15.02;6.97;;;14.50;99.90;;;;;;4937999;28;20057;-78
2023/08/20 02:31:36;;;;;;;16.52;7.55;;;14.50;99.90;;;;;;4956048;28;20294;-78
2023/08/20 02:34:02;;;;;;;14.48;7.15;;;14.50;99.90;;;;;;4954403;28;20045;-78
2023/08/20 02:36:28;;;;;;;11.82;7.40;;;14.50;99.90;;;;;;4954583;28;20142;-78
2023/08/20 02:38:53;;;;;;;11.55;7.03;;;14.50;99.90;;;;;;4954966;28;20355;-78
2023/08/20 02:41:19;;;;;;;14.38;7.93;;;14.50;99.90;;;;;;4953704;28;20442;-78
2023/08/20 02:43:45;;;;;;;15.10;8.57;;;14.60;99.90;;;;;;4953100;28;20084;-78
2023/08/20 02:46:11;;;;;;;15.15;7.82;;;14.60;99.90;;;;;;4967980;28;20161;-78
2023/08/20 02:48:37;;;;;;;12.75;8.38;;;14.60;99.90;;;;;;4956487;28;20050;-78
2023/08/20 02:51:02;;;;;;;15.27;8.20;;;14.70;99.90;;;;;;4953086;28;20165;-78
2023/08/20 02:53:28;;;;;;;12.38;8.20;;;14.70;99.90;;;;;;4954997;28;20034;-78
2023/08/20 02:55:54;;;;;;;13.75;8.27;;;14.70;99.90;;;;;;4940524;28;20038;-78
2023/08/20 02:58:19;;;;;;;11.60;7.97;;;14.70;99.90;;;;;;4956787;28;20130;-78
2023/08/20 03:00:45;;;;;;;14.35;8.18;;;14.60;99.90;;;;;;4938843;28;20209;-78
2023/08/20 03:03:11;;;;;;;17.33;8.70;;;14.60;99.90;;;;;;4967081;28;20074;-78
2023/08/20 03:05:37;;;;;;;14.20;8.65;;;14.60;99.90;;;;;;4969099;28;20051;-78
2023/08/20 03:08:05;;;;;;;14.43;8.13;;;14.70;99.90;;;;;;4955484;28;20549;-78
2023/08/20 03:10:32;;;;;;;15.48;8.15;;;14.70;99.90;;;;;;4937638;28;20038;-78
2023/08/20 03:12:59;;;;;;;13.35;8.57;;;14.60;99.90;;;;;;4956999;28;20041;-78
2023/08/20 03:15:24;;;;;;;13.48;7.88;;;14.60;99.90;;;;;;4938257;28;20058;-78
2023/08/20 03:17:50;;;;;;;12.13;8.13;;;14.50;99.90;;;;;;4943847;28;20098;-78
2023/08/20 03:20:15;;;;;;;15.35;8.23;;;14.50;99.90;;;;;;4939698;28;20402;-78
2023/08/20 03:22:41;;;;;;;15.32;7.93;;;14.50;99.90;;;;;;4944292;28;20049;-78
2023/08/20 03:25:07;;;;;;;14.50;8.07;;;14.50;99.90;;;;;;4939962;28;20042;-78
2023/08/20 03:27:33;;;;;;;16.48;8.65;;;14.40;99.90;;;;;;4957646;28;20034;-78
2023/08/20 03:29:59;;;;;;;14.20;8.02;;;14.40;99.90;;;;;;4959610;28;20262;-78
2023/08/20 03:32:24;;;;;;;15.73;8.25;;;14.40;99.90;;;;;;4941741;28;20101;-78
2023/08/20 03:34:50;;;;;;;12.45;7.70;;;14.40;99.90;;;;;;4941770;28;20101;-79
2023/08/20 03:37:16;;;;;;;13.45;7.22;;;14.40;99.90;;;;;;4939408;28;20458;-78
2023/08/20 03:39:42;;;;;;;9.57;7.07;;;14.30;99.90;;;;;;4958189;28;20042;-78
2023/08/20 03:42:08;;;;;;;12.60;8.02;;;14.40;99.90;;;;;;4954924;28;20089;-78
2023/08/20 03:44:34;;;;;;;14.77;7.55;;;14.40;99.90;;;;;;4957826;28;20046;-78
2023/08/20 03:46:59;;;;;;;10.93;7.03;;;14.30;99.90;;;;;;4958803;28;20061;-79
2023/08/20 03:49:25;;;;;;;11.77;7.65;;;14.30;99.90;;;;;;4972502;28;20473;-78
2023/08/20 03:51:50;;;;;;;12.02;7.10;;;14.30;99.90;;;;;;4956436;28;20031;-78
2023/08/20 03:54:16;;;;;;;11.45;6.47;;;14.30;99.90;;;;;;4955888;28;20045;-78
2023/08/20 03:56:42;;;;;;;14.77;7.43;;;14.10;99.90;;;;;;4957934;28;20450;-78
2023/08/20 03:59:07;;;;;;;11.05;7.43;;;14.20;99.90;;;;;;4958744;28;20391;-78
2023/08/20 04:01:33;;;;;;;9.65;6.72;;;14.10;99.90;;;;;;4959994;28;20038;-78
2023/08/20 04:04:00;;;;;;;11.85;6.97;;;14.10;99.90;;;;;;4972376;28;20039;-78
2023/08/20 04:06:25;;;;;;;9.23;6.85;;;14.10;99.90;;;;;;4957498;28;20055;-78
2023/08/20 04:08:51;;;;;;;11.07;7.38;;;14.10;99.90;;;;;;4959618;28;20042;-78
2023/08/20 04:11:16;;;;;;;11.40;7.45;;;14.10;99.90;;;;;;4956671;28;20502;-78
2023/08/20 04:13:43;;;;;;;12.35;7.30;;;14.10;99.90;;;;;;4957383;28;20046;-78
2023/08/20 04:16:09;;;;;;;11.75;6.93;;;14.10;99.90;;;;;;4958967;28;20113;-78
2023/08/20 04:18:35;;;;;;;14.85;7.72;;;14.10;99.90;;;;;;4960779;28;20513;-78
2023/08/20 04:21:01;;;;;;;12.57;7.13;;;14.20;99.90;;;;;;4960876;28;20132;-78
2023/08/20 04:23:27;;;;;;;9.68;6.47;;;14.20;99.90;;;;;;4947036;28;20053;-78
2023/08/20 04:25:52;;;;;;;13.95;7.30;;;14.20;99.90;;;;;;4958159;28;20038;-78
2023/08/20 04:28:18;;;;;;;10.90;7.22;;;14.20;99.90;;;;;;4959862;28;20045;-78
2023/08/20 04:30:44;;;;;;;14.82;8.27;;;14.20;99.90;;;;;;4977484;28;20492;-78
2023/08/20 04:33:10;;;;;;;11.73;7.80;;;14.20;99.90;;;;;;4977352;28;20038;-78
2023/08/20 04:35:35;;;;;;;12.15;7.68;;;14.20;99.90;;;;;;4959073;28;20060;-78
2023/08/20 04:38:02;;;;;;;11.70;7.82;;;14.20;99.90;;;;;;4958074;28;20046;-78
2023/08/20 04:40:28;;;;;;;12.48;7.28;;;14.10;99.90;;;;;;4945626;28;20057;-78
2023/08/20 04:42:53;;;;;;;13.43;7.88;;;14.20;99.90;;;;;;4976415;28;20233;-78
2023/08/20 04:45:19;;;;;;;12.52;7.93;;;14.20;99.90;;;;;;4942321;28;20081;-78
2023/08/20 04:47:46;;;;;;;9.73;7.38;;;14.20;99.90;;;;;;4959240;28;20536;-78
2023/08/20 04:50:13;;;;;;;10.93;6.97;;;14.20;99.90;;;;;;4975636;28;20061;-78
2023/08/20 04:52:38;;;;;;;11.38;7.35;;;14.20;99.90;;;;;;4956856;28;20109;-78
2023/08/20 04:55:04;;;;;;;13.55;7.65;;;14.30;99.90;;;;;;4957287;28;20442;-78
2023/08/20 04:57:30;;;;;;;13.52;7.60;;;14.30;99.90;;;;;;4974634;28;20047;-78
2023/08/20 04:59:55;;;;;;;10.13;7.40;;;14.30;99.90;;;;;;4959763;28;20049;-79
2023/08/20 05:02:21;;;;;;;12.32;7.72;;;14.20;99.90;;;;;;4958326;28;20121;-79
2023/08/20 05:04:49;;;;;;;10.68;7.63;;;14.30;99.90;;;;;;4958429;28;20056;-79
2023/08/20 05:07:15;;;;;;;10.68;7.45;;;14.40;99.90;;;;;;4974664;28;20062;-79
2023/08/20 05:09:41;;;;;;;12.68;7.80;;;14.40;99.90;;;;;;4959779;28;20041;-80
2023/08/20 05:12:07;;;;;;;12.82;8.32;;;14.50;99.90;;;;;;4970366;28;20037;-79
2023/08/20 05:14:33;;;;;;;12.05;7.47;;;14.50;99.90;;;;;;4946077;28;20436;-79
2023/08/20 05:16:59;;;;;;;12.13;6.95;;;14.60;99.90;;;;;;4975918;28;20089;-79
2023/08/20 05:19:24;;;;;;;10.18;7.32;;;14.70;99.90;;;;;;4975584;28;20049;-80
2023/08/20 05:21:58;;;;;;;14.80;8.00;;;14.80;99.90;;;;;;4958846;28;20077;-78
2023/08/20 05:24:24;;;;;;;16.95;8.27;;;14.90;99.90;;;;;;4977975;28;20038;-79
2023/08/20 05:27:14;;;;;;;14.60;8.23;;;14.90;99.90;;;;;;4958608;28;20237;-80
2023/08/20 05:29:40;;;;;;;11.00;7.15;;;15.00;99.90;;;;;;4973068;28;20174;-79
2023/08/20 05:32:06;;;;;;;12.60;7.40;;;15.10;99.90;;;;;;4944784;28;20113;-78
2023/08/20 05:34:32;;;;;;;13.65;8.45;;;15.20;99.90;;;;;;4975214;28;20057;-79
2023/08/20 05:36:58;;;;;;;10.45;7.53;;;15.30;99.90;;;;;;4972335;28;20042;-79
2023/08/20 05:39:25;;;;;;;13.50;7.57;;;15.40;99.90;;;;;;4973133;28;20047;-80
2023/08/20 05:41:52;;;;;;;12.70;7.50;;;15.50;99.90;;;;;;4975804;28;20112;-79
2023/08/20 05:44:17;;;;;;;17.17;8.13;;;15.60;99.90;;;;;;4958630;28;20050;-79
2023/08/20 05:46:44;;;;;;;13.85;7.60;;;15.70;99.90;;;;;;4975087;28;20092;-79
2023/08/20 05:49:09;;;;;;;10.45;7.25;;;15.80;99.90;;;;;;4978554;28;20070;-78
2023/08/20 05:51:38;;;;;;;11.68;7.65;;;15.90;99.90;;;;;;4957882;28;20069;-80
2023/08/20 05:54:04;;;;;;;12.23;8.02;;;16.00;99.90;;;;;;4957571;28;20487;-80
2023/08/20 05:56:30;;;;;;;11.13;7.63;;;16.10;99.90;;;;;;4958539;28;20044;-79
2023/08/20 05:58:56;;;;;;;15.43;7.13;;;16.10;99.90;;;;;;4959354;28;20046;-78
2023/08/20 06:01:21;;;;;;;14.25;7.72;;;16.30;99.90;;;;;;4955996;28;20055;-79
2023/08/20 06:03:47;;;;;;;12.43;7.22;;;16.40;99.90;;;;;;4956720;28;20041;-79
2023/08/20 06:06:12;;;;;;;13.30;6.63;;;16.40;99.90;;;;;;4943541;28;20113;-78
2023/08/20 06:08:38;;;;;;;11.40;7.07;;;16.50;99.90;;;;;;4957784;28;20481;-78
2023/08/20 06:11:04;;;;;;;11.00;6.45;;;16.60;99.90;;;;;;4956828;28;20038;-79
2023/08/20 06:13:30;;;;;;;12.23;6.30;;;16.70;99.90;;;;;;4959081;28;20220;-78
2023/08/20 06:15:55;;;;;;;9.43;6.25;;;16.70;99.90;;;;;;4941902;28;20666;-79
2023/08/20 06:18:21;;;;;;;9.93;5.85;;;16.80;99.90;;;;;;4959264;28;20068;-79
2023/08/20 06:20:49;;;;;;;11.52;5.95;;;16.90;99.90;;;;;;4956755;28;20039;-79
2023/08/20 06:23:15;;;;;;;9.13;5.00;;;17.10;99.90;;;;;;4956607;28;20100;-78
2023/08/20 06:25:40;;;;;;;12.10;5.88;;;17.20;99.90;;;;;;4952551;28;20042;-78
2023/08/20 06:28:06;;;;;;;9.40;5.30;;;17.20;99.90;;;;;;4975136;28;20064;-78
2023/08/20 06:30:31;;;;;;;9.98;5.28;;;17.40;99.90;;;;;;4958569;28;20046;-78
2023/08/20 06:32:57;;;;;;;11.45;5.75;;;17.50;99.90;;;;;;4959593;28;20301;-78
2023/08/20 06:35:23;;;;;;;7.57;5.25;;;17.50;99.90;;;;;;4957187;28;20062;-78
2023/08/20 06:37:48;;;;;;;12.40;5.32;;;17.60;99.90;;;;;;4944847;28;20046;-79
2023/08/20 06:40:17;;;;;;;10.52;5.72;;;17.70;99.90;;;;;;4955423;28;20136;-79
2023/08/20 06:42:43;;;;;;;10.32;5.43;;;17.80;99.90;;;;;;4976378;28;20675;-78
2023/08/20 06:45:09;;;;;;;12.70;5.88;;;17.90;99.90;;;;;;4975141;28;20038;-79
2023/08/20 06:47:35;;;;;;;11.70;5.47;;;18.00;99.90;;;;;;4960957;28;20476;-78
2023/08/20 06:50:00;;;;;;;9.23;4.90;;;18.10;99.90;;;;;;4978176;28;20421;-76
2023/08/20 06:52:26;;;;;;;11.05;5.28;;;18.10;99.90;;;;;;4963299;28;20140;-78
2023/08/20 06:54:52;;;;;;;10.98;5.43;;;18.20;99.90;;;;;;4961326;28;20045;-79
2023/08/20 06:57:17;;;;;;;10.25;5.18;;;18.30;99.90;;;;;;4963386;28;20061;-80
2023/08/20 06:59:43;;;;;;;10.93;5.50;;;18.40;99.90;;;;;;4946206;28;20045;-81
2023/08/20 07:02:10;;;;;;;12.90;5.38;;;18.50;99.90;;;;;;4964032;28;20042;-81
2023/08/20 07:04:35;;;;;;;11.23;4.88;;;18.50;99.90;;;;;;4963505;28;20078;-81
2023/08/20 07:07:01;;;;;;;8.60;4.30;;;18.60;99.90;;;;;;4978819;28;20066;-80
2023/08/20 07:09:27;;;;;;;13.90;4.90;;;18.60;99.90;;;;;;4979123;28;20448;-81
2023/08/20 07:11:52;;;;;;;8.70;5.18;;;18.70;99.90;;;;;;4961561;28;20045;-82
2023/08/20 07:14:21;;;;;;;12.20;5.07;;;18.80;99.90;;;;;;4963213;28;20424;-81
2023/08/20 07:16:50;;;;;;;8.73;4.65;;;19.00;99.90;;;;;;4962101;28;20034;-82
2023/08/20 07:19:15;;;;;;;8.73;4.35;;;19.00;99.90;;;;;;4977287;28;20213;-81
2023/08/20 07:21:41;;;;;;;10.25;4.15;;;19.10;99.90;;;;;;4946988;28;20265;-81
2023/08/20 07:24:07;;;;;;;12.15;5.15;;;19.20;99.90;;;;;;4960820;28;20262;-81
2023/08/20 07:26:33;;;;;;;12.95;4.40;;;19.30;99.90;;;;;;4959762;28;20186;-81
2023/08/20 07:28:59;;;;;;;10.40;4.60;;;19.40;99.90;;;;;;4961328;28;20034;-82
2023/08/20 07:31:30;;;;;;;10.48;4.40;;;19.30;99.90;;;;;;4947520;28;20080;-81
2023/08/20 07:33:57;;;;;;;10.70;4.72;;;19.40;99.90;;;;;;4980323;28;20038;-81
2023/08/20 07:36:24;;;;;;;15.15;4.80;;;19.50;99.90;;;;;;4962211;28;20632;-81
2023/08/20 07:38:54;;;;;;;11.25;3.97;;;19.60;99.90;;;;;;4961862;28;20066;-79
2023/08/20 07:41:22;;;;;;;9.32;3.90;;;19.70;99.90;;;;;;4977180;28;20065;-80
2023/08/20 07:43:52;;;;;;;10.93;4.43;;;19.70;99.90;;;;;;4961529;28;20893;-80
2023/08/20 07:46:18;;;;;;;7.90;3.63;;;19.80;99.90;;;;;;4948040;28;20065;-81
2023/08/20 07:48:44;;;;;;;10.05;3.90;;;19.80;99.90;;;;;;4951391;28;20178;-79
2023/08/20 07:51:10;;;;;;;13.82;4.55;;;20.00;99.90;;;;;;4972302;28;20121;-80
2023/08/20 07:53:35;;;;;;;8.15;3.40;;;20.00;99.90;;;;;;4971693;28;20034;-81
2023/08/20 07:56:01;;;;;;;10.60;3.75;;;20.00;99.90;;;;;;4960962;28;20034;-80
2023/08/20 07:58:28;;;;;;;8.95;3.70;;;20.10;99.90;;;;;;4975837;28;20239;-80
2023/08/20 08:00:54;;;;;;;10.15;3.33;;;20.20;99.90;;;;;;4978037;28;20121;-80
2023/08/20 08:03:20;;;;;;;10.35;3.58;;;20.40;99.90;;;;;;4946665;28;20120;-80
2023/08/20 08:05:49;;;;;;;8.02;2.85;;;20.40;99.90;;;;;;4959361;28;20043;-80
2023/08/20 08:08:16;;;;;;;9.85;3.40;;;20.50;99.90;;;;;;4979401;28;20096;-79
2023/08/20 08:10:44;;;;;;;9.35;3.10;;;20.60;99.90;;;;;;4961786;28;20043;-82
2023/08/20 08:13:14;;;;;;;10.43;3.00;;;20.60;99.90;;;;;;4958910;28;20149;-79
2023/08/20 08:15:40;;;;;;;10.18;2.97;;;20.70;99.90;;;;;;4959049;28;20116;-77
2023/08/20 08:18:10;;;;;;;7.05;2.45;;;20.70;99.90;;;;;;4960799;28;20062;-78
2023/08/20 08:20:36;;;;;;;11.00;2.47;;;20.80;99.90;;;;;;4962454;28;20034;-79
2023/08/20 08:23:01;;;;;;;6.65;2.53;;;20.90;99.90;;;;;;4944797;28;20042;-78
2023/08/20 08:25:28;;;;;;;7.85;2.50;;;21.10;99.90;;;;;;4961323;28;20053;-78
2023/08/20 08:27:53;;;;;;;4.65;2.13;;;21.20;99.90;;;;;;4960552;28;20122;-79
2023/08/20 08:30:22;;;;;;;8.43;2.70;;;21.30;99.90;;;;;;4975385;28;20129;-78
2023/08/20 08:32:47;;;;;;;7.63;2.22;;;21.30;99.90;;;;;;4974755;28;20074;-79
2023/08/20 08:35:13;;;;;;;7.07;2.50;;;21.50;99.90;;;;;;4958180;28;20080;-79
2023/08/20 08:37:39;;;;;;;7.13;2.42;;;21.40;99.90;;;;;;4953863;28;20064;-81
2023/08/20 08:40:06;;;;;;;6.13;2.22;;;21.60;99.90;;;;;;4959197;28;20587;-80
2023/08/20 08:42:33;;;;;;;10.10;2.42;;;21.50;99.90;;;;;;4957062;28;20046;-79
2023/08/20 08:45:03;;;;;;;9.40;2.05;;;21.50;99.90;;;;;;4942880;28;20034;-79
2023/08/20 08:47:29;;;;;;;7.10;1.90;;;21.60;99.90;;;;;;4963904;28;20117;-79
2023/08/20 08:49:59;;;;;;;8.05;2.30;;;21.70;99.90;;;;;;4949238;28;20038;-80
2023/08/20 08:52:26;;;;;;;9.38;2.28;;;21.60;99.90;;;;;;4965207;28;20482;-80
2023/08/20 08:54:52;;;;;;;7.40;1.98;;;21.50;99.90;;;;;;4947760;28;20105;-79
2023/08/20 08:57:18;;;;;;;7.75;2.35;;;21.80;99.90;;;;;;4980933;28;20481;-80
2023/08/20 08:59:44;;;;;;;7.32;2.08;;;21.80;99.90;;;;;;4963857;28;20045;-80
2023/08/20 09:02:11;;;;;;;5.13;2.22;;;21.90;99.90;;;;;;4966261;28;20129;-80
2023/08/20 09:04:41;;;;;;;5.90;2.00;;;22.00;99.90;;;;;;4967316;28;20124;-80
2023/08/20 09:07:12;;;;;;;10.70;2.38;;;22.00;99.90;;;;;;4945448;28;20065;-80
2023/08/20 09:09:43;;;;;;;6.80;1.77;;;21.80;99.90;;;;;;4980419;28;20053;-80
2023/08/20 09:12:21;;;;;;;6.20;1.98;;;21.80;99.90;;;;;;4967338;28;20137;-80
2023/08/20 09:14:51;;;;;;;2.92;1.50;;;22.00;99.90;;;;;;4987313;28;20069;-80
2023/08/20 09:17:17;;;;;;;7.63;1.83;;;22.20;99.90;;;;;;4967010;28;20042;-80
2023/08/20 09:19:46;;;;;;;6.00;1.80;;;22.40;99.90;;;;;;4957786;28;20397;-79
2023/08/20 09:22:13;;;;;;;6.95;1.58;;;22.60;99.90;;;;;;4960520;28;20046;-80
2023/08/20 09:24:42;;;;;;;7.70;1.85;;;22.80;99.90;;;;;;4974793;28;20054;-80
2023/08/20 09:27:08;;;;;;;6.00;1.65;;;22.60;99.90;;;;;;4960069;28;20046;-79
2023/08/20 09:29:43;;;;;;;5.05;1.60;;;22.60;99.90;;;;;;4959170;28;20050;-80
2023/08/20 09:32:33;;;;;;;7.72;1.85;;;22.60;99.90;;;;;;4944253;28;20045;-80
2023/08/20 09:34:59;;;;;;;7.13;2.00;;;22.90;99.90;;;;;;4960695;28;20306;-80
2023/08/20 09:37:25;;;;;;;8.18;2.05;;;23.00;99.90;;;;;;4977090;28;20536;-80
2023/08/20 09:39:51;;;;;;;5.78;1.65;;;23.10;99.90;;;;;;4958115;28;20136;-82
2023/08/20 09:42:17;;;;;;;6.03;1.92;;;23.10;99.90;;;;;;4945311;28;20065;-83
2023/08/20 09:44:45;;;;;;;5.10;2.08;;;22.70;99.90;;;;;;4942388;28;20539;-83
2023/08/20 09:47:12;;;;;;;4.18;1.80;;;22.80;99.90;;;;;;4975527;28;20035;-82
2023/08/20 09:49:43;;;;;;;9.13;2.15;;;22.80;99.90;;;;;;4958269;28;20035;-82
2023/08/20 09:52:15;;;;;;;8.38;1.75;;;23.00;99.90;;;;;;4971929;28;20466;-83
2023/08/20 09:55:02;;;;;;;5.95;1.73;;;23.30;99.90;;;;;;4940920;28;20054;-84
2023/08/20 09:57:35;;;;;;;6.75;1.98;;;23.20;99.90;;;;;;4958772;28;20042;-84
2023/08/20 10:00:03;;;;;;;5.30;1.98;;;23.40;99.90;;;;;;4974098;28;20046;-84
2023/08/20 10:02:29;;;;;;;4.63;1.48;;;23.30;99.90;;;;;;4956322;28;20038;-83
2023/08/20 10:04:55;;;;;;;5.25;1.70;;;23.70;99.90;;;;;;4956137;28;20069;-84
2023/08/20 10:07:22;;;;;;;7.25;1.80;;;23.40;99.90;;;;;;4957898;28;21396;-83
2023/08/20 10:09:50;;;;;;;5.38;1.65;;;23.20;99.90;;;;;;4972984;28;20045;-84
2023/08/20 10:12:16;;;;;;;4.85;1.70;;;23.40;99.90;;;;;;4960391;28;20047;-83
2023/08/20 10:14:42;;;;;;;4.97;2.17;;;23.70;99.90;;;;;;4974600;28;20059;-83
2023/08/20 10:17:12;;;;;;;6.45;2.13;;;23.90;99.90;;;;;;4945835;28;20042;-84
2023/08/20 10:19:38;;;;;;;5.30;1.90;;;23.80;99.90;;;;;;4977307;28;20100;-84
2023/08/20 10:22:06;;;;;;;6.75;2.05;;;23.70;99.90;;;;;;4944543;28;20039;-83
2023/08/20 10:24:57;;;;;;;4.40;1.90;;;23.70;99.90;;;;;;4958059;28;20237;-83
2023/08/20 10:27:27;;;;;;;8.93;2.20;;;23.80;99.90;;;;;;4973601;28;20076;-84
2023/08/20 10:29:58;;;;;;;6.53;2.10;;;24.00;99.90;;;;;;4946341;28;20049;-83
2023/08/20 10:32:49;;;;;;;5.28;2.10;;;24.00;99.90;;;;;;4947390;28;20042;-84
2023/08/20 10:35:17;;;;;;;4.38;2.30;;;24.20;99.90;;;;;;4942566;28;20652;-83
2023/08/20 10:38:02;;;;;;;8.10;2.20;;;23.80;99.90;;;;;;4957337;28;20085;-84
2023/08/20 10:40:57;;;;;;;4.38;2.10;;;23.80;99.90;;;;;;4977070;28;20260;-83
2023/08/20 10:43:34;;;;;;;7.55;2.30;;;24.00;99.90;;;;;;4939309;28;20066;-83
2023/08/20 10:46:13;;;;;;;6.60;2.13;;;24.20;99.90;;;;;;4960454;28;20089;-84
2023/08/20 10:48:40;;;;;;;7.85;2.22;;;24.30;99.90;;;;;;4958946;28;20126;-84
2023/08/20 10:51:13;;;;;;;6.70;1.95;;;24.50;99.90;;;;;;4939200;28;20042;-84
2023/08/20 10:53:40;;;;;;;6.70;1.80;;;24.60;99.90;;;;;;4956716;28;20517;-83
2023/08/20 10:56:11;;;;;;;5.40;1.77;;;24.90;99.90;;;;;;4943324;28;20043;-84
2023/08/20 10:58:43;;;;;;;5.47;1.80;;;25.00;99.90;;;;;;4976374;28;20405;-83
2023/08/20 11:01:24;;;;;;;5.00;1.55;;;24.70;99.90;;;;;;4957150;28;20035;-83
2023/08/20 11:03:51;;;;;;;5.10;1.70;;;25.10;99.90;;;;;;4972830;28;20277;-84
2023/08/20 11:06:18;;;;;;;4.60;1.60;;;24.60;99.90;;;;;;4959453;28;20571;-84
2023/08/20 11:08:44;;;;;;;5.47;1.60;;;24.70;99.90;;;;;;4956761;28;20046;-82
2023/08/20 11:11:13;;;;;;;3.97;1.45;;;24.80;99.90;;;;;;4940309;28;20497;-83
2023/08/20 11:13:40;;;;;;;6.88;1.55;;;24.70;99.90;;;;;;4958565;28;20918;-83
2023/08/20 11:16:07;;;;;;;4.68;1.40;;;25.10;99.90;;;;;;4972758;28;20104;-84
2023/08/20 11:18:33;;;;;;;4.47;1.35;;;25.10;99.90;;;;;;4957131;28;20176;-84
2023/08/20 11:21:00;;;;;;;4.95;1.20;;;25.30;99.90;;;;;;4942138;28;20290;-83
2023/08/20 11:23:26;;;;;;;4.15;1.30;;;25.10;99.90;;;;;;4977604;28;20060;-84
2023/08/20 11:25:51;;;;;;;4.63;1.13;;;24.60;99.90;;;;;;4973282;28;20353;-84
2023/08/20 11:28:17;;;;;;;4.43;1.45;;;25.20;99.90;;;;;;4954858;28;20054;-84
2023/08/20 11:30:43;;;;;;;4.28;1.55;;;24.90;99.90;;;;;;4973694;28;20074;-84
2023/08/20 11:33:09;;;;;;;4.18;1.20;;;24.80;99.90;;;;;;4959496;28;20138;-83
2023/08/20 11:35:35;;;;;;;3.65;1.30;;;25.20;99.90;;;;;;4956662;28;20049;-83
2023/08/20 11:38:04;;;;;;;3.17;0.98;;;25.50;99.90;;;;;;4960328;28;20046;-84
2023/08/20 11:40:29;;;;;;;3.63;1.13;;;25.60;99.90;;;;;;4960880;28;20121;-83
2023/08/20 11:42:58;;;;;;;4.38;1.20;;;25.80;99.90;;;;;;4962563;28;20117;-84
2023/08/20 11:45:27;;;;;;;4.28;1.50;;;25.60;99.90;;;;;;4961866;28;20697;-84
2023/08/20 11:47:57;;;;;;;4.70;1.02;;;25.70;99.90;;;;;;4963517;28;20038;-84
2023/08/20 11:50:26;;;;;;;6.72;1.48;;;26.00;99.90;;;;;;4973851;28;20198;-83
2023/08/20 11:52:55;;;;;;;1.67;0.95;;;26.10;99.90;;;;;;4964573;28;20401;-84
2023/08/20 11:55:25;;;;;;;2.38;1.08;;;26.10;99.90;;;;;;4959637;28;20070;-84
2023/08/20 11:57:52;;;;;;;3.53;1.10;;;25.90;99.90;;;;;;4961248;28;20046;-84
2023/08/20 12:00:26;;;;;;;3.95;1.13;;;26.20;99.90;;;;;;4946924;28;20544;-83
2023/08/20 12:02:58;;;;;;;4.57;1.52;;;26.30;99.90;;;;;;4963065;28;20065;-84
2023/08/20 12:05:28;;;;;;;4.55;1.02;;;26.20;99.90;;;;;;4944513;28;20043;-84
2023/08/20 12:07:58;;;;;;;2.47;1.08;;;26.10;99.90;;;;;;4959908;28;20058;-83
2023/08/20 12:10:25;;;;;;;4.30;1.00;;;26.50;99.90;;;;;;4957834;28;20385;-84
2023/08/20 12:12:52;;;;;;;3.65;0.88;;;26.50;99.90;;;;;;4975823;28;20593;-83
2023/08/20 12:15:18;;;;;;;4.68;1.10;;;26.30;99.90;;;;;;4960558;28;20057;-84
2023/08/20 12:17:58;;;;;;;3.78;1.40;;;26.20;99.90;;;;;;4978520;28;20588;-84
2023/08/20 12:20:26;;;;;;;3.63;1.42;;;26.40;99.90;;;;;;4959836;28;20378;-84
2023/08/20 12:22:52;;;;;;;4.20;1.40;;;26.70;99.90;;;;;;4977199;28;20101;-83
2023/08/20 12:25:17;;;;;;;3.42;1.20;;;26.80;99.90;;;;;;4961499;28;20129;-84
2023/08/20 12:27:46;;;;;;;4.18;1.10;;;27.20;99.90;;;;;;4959996;28;20485;-83
2023/08/20 12:30:12;;;;;;;3.00;1.10;;;27.30;99.90;;;;;;4963210;28;20042;-84
2023/08/20 12:32:38;;;;;;;3.22;1.77;;;27.50;99.90;;;;;;4956298;28;20398;-84
2023/08/20 12:35:04;;;;;;;3.42;1.23;;;27.40;99.90;;;;;;4960556;28;20088;-83
2023/08/20 12:37:30;;;;;;;3.33;1.02;;;27.40;99.90;;;;;;4961092;28;20451;-83
2023/08/20 12:39:55;;;;;;;5.43;1.33;;;27.60;99.90;;;;;;4958142;28;20042;-83
2023/08/20 12:42:21;;;;;;;5.78;1.52;;;27.80;99.90;;;;;;4979389;28;20057;-83
2023/08/20 12:44:47;;;;;;;6.07;1.40;;;27.90;99.90;;;;;;4978963;28;20049;-83